createdAt,value
2018-11-21T00:00:18.455Z,2.60
2018-11-21T00:02:47.536Z,2.60
2018-11-21T00:05:16.487Z,2.60
2018-11-21T00:07:46.318Z,2.60
2018-11-21T00:10:15.062Z,2.50
2018-11-21T00:12:49.179Z,2.60
2018-11-21T00:15:18.037Z,2.60
2018-11-21T00:17:46.814Z,2.50
2018-11-21T00:20:15.531Z,2.50
2018-11-21T00:22:44.315Z,2.50
2018-11-21T00:25:13.489Z,2.50
2018-11-21T00:27:42.226Z,2.50
2018-11-21T00:30:13.216Z,2.50
2018-11-21T00:32:43.155Z,2.50
2018-11-21T00:35:11.973Z,2.50
2018-11-21T00:37:40.728Z,2.50
2018-11-21T00:40:11.142Z,2.60
2018-11-21T00:42:46.471Z,2.60
2018-11-21T00:45:09.798Z,2.50
2018-11-21T00:47:38.730Z,2.50
2018-11-21T00:50:07.812Z,2.50
2018-11-21T00:52:36.956Z,2.50
2018-11-21T00:55:07.146Z,2.50
2018-11-21T00:57:35.942Z,2.50
2018-11-21T01:00:06.799Z,2.50
2018-11-21T01:02:35.589Z,2.50
2018-11-21T01:05:04.566Z,2.50
2018-11-21T01:07:33.384Z,2.40
2018-11-21T01:10:02.104Z,2.40
2018-11-21T01:12:30.816Z,2.40
2018-11-21T01:14:59.557Z,2.40
2018-11-21T01:17:28.334Z,2.40
2018-11-21T01:19:57.036Z,2.40
2018-11-21T01:22:25.790Z,2.40
2018-11-21T01:24:54.578Z,2.40
2018-11-21T01:27:23.415Z,2.30
2018-11-21T01:29:52.100Z,2.30
2018-11-21T01:32:20.893Z,2.30
2018-11-21T01:34:49.826Z,2.30
2018-11-21T01:37:18.538Z,2.30
2018-11-21T01:39:47.440Z,2.30
2018-11-21T01:42:16.321Z,2.30
2018-11-21T01:44:45.045Z,2.40
2018-11-21T01:47:13.806Z,2.40
2018-11-21T01:49:42.588Z,2.40
2018-11-21T01:52:11.405Z,2.40
2018-11-21T01:54:40.155Z,2.40
2018-11-21T01:57:09.009Z,2.40
2018-11-21T01:59:38.223Z,2.40
2018-11-21T02:02:06.949Z,2.40
2018-11-21T02:04:35.941Z,2.40
2018-11-21T02:07:05.448Z,2.30
2018-11-21T02:09:34.230Z,2.30
2018-11-21T02:12:02.995Z,2.30
2018-11-21T02:14:31.765Z,2.30
2018-11-21T02:17:00.604Z,2.30
2018-11-21T02:19:29.285Z,2.30
2018-11-21T02:21:58.050Z,2.30
2018-11-21T02:24:26.873Z,2.30
2018-11-21T02:26:55.649Z,2.20
2018-11-21T02:29:24.380Z,2.20
2018-11-21T02:31:53.160Z,2.20
2018-11-21T02:34:22.049Z,2.20
2018-11-21T02:36:50.899Z,2.30
2018-11-21T02:39:19.762Z,2.30
2018-11-21T02:41:48.634Z,2.30
2018-11-21T02:44:17.473Z,2.30
2018-11-21T02:46:46.244Z,2.30
2018-11-21T02:49:15.019Z,2.30
2018-11-21T02:51:43.887Z,2.30
2018-11-21T02:54:12.681Z,2.30
2018-11-21T02:57:19.164Z,2.30
2018-11-21T02:59:48.988Z,2.30
2018-11-21T03:02:17.828Z,2.20
2018-11-21T03:04:46.525Z,2.20
2018-11-21T03:07:15.362Z,2.20
2018-11-21T03:09:44.229Z,2.20
2018-11-21T03:12:13.042Z,2.30
2018-11-21T03:14:41.804Z,2.30
2018-11-21T03:17:10.585Z,2.30
2018-11-21T03:19:39.376Z,2.20
2018-11-21T03:22:08.180Z,2.20
2018-11-21T03:24:36.925Z,2.20
2018-11-21T03:27:05.953Z,2.20
2018-11-21T03:29:34.673Z,2.20
2018-11-21T03:32:03.472Z,2.20
2018-11-21T03:34:32.228Z,2.20
2018-11-21T03:37:01.018Z,2.20
2018-11-21T03:39:29.795Z,2.10
2018-11-21T03:41:58.522Z,2.20
2018-11-21T03:44:27.264Z,2.20
2018-11-21T03:46:56.053Z,2.20
2018-11-21T03:49:24.800Z,2.20
2018-11-21T03:51:53.505Z,2.10
2018-11-21T03:54:22.286Z,2.10
2018-11-21T03:56:51.040Z,2.10
2018-11-21T03:59:19.831Z,2.10
2018-11-21T04:01:48.538Z,2.10
2018-11-21T04:04:17.280Z,2.00
2018-11-21T04:06:46.051Z,2.00
2018-11-21T04:09:14.841Z,2.00
2018-11-21T04:11:43.641Z,2.00
2018-11-21T04:14:12.410Z,2.00
2018-11-21T04:16:41.179Z,2.00
2018-11-21T04:19:09.923Z,2.00
2018-11-21T04:21:38.636Z,2.00
2018-11-21T04:24:07.453Z,2.00
2018-11-21T04:26:36.190Z,2.00
2018-11-21T04:29:05.053Z,2.00
2018-11-21T04:31:33.816Z,2.00
2018-11-21T04:34:02.585Z,2.00
2018-11-21T04:36:31.308Z,2.00
2018-11-21T04:39:00.073Z,2.00
2018-11-21T04:41:28.833Z,2.00
2018-11-21T04:43:57.597Z,1.90
2018-11-21T04:46:26.313Z,2.00
2018-11-21T04:48:55.069Z,2.00
2018-11-21T04:51:23.840Z,2.00
2018-11-21T04:53:52.592Z,2.00
2018-11-21T04:56:21.311Z,2.00
2018-11-21T04:58:50.061Z,1.90
2018-11-21T05:01:18.806Z,1.90
2018-11-21T05:03:47.594Z,1.90
2018-11-21T05:06:16.381Z,1.90
2018-11-21T05:08:45.173Z,2.00
2018-11-21T05:11:13.963Z,2.00
2018-11-21T05:13:43.180Z,2.00
2018-11-21T05:16:12.226Z,2.00
2018-11-21T05:18:40.964Z,2.00
2018-11-21T05:21:09.704Z,2.00
2018-11-21T05:23:38.454Z,2.00
2018-11-21T05:26:07.403Z,2.00
2018-11-21T05:28:38.695Z,1.90
2018-11-21T05:31:07.421Z,1.90
2018-11-21T05:33:36.163Z,2.00
2018-11-21T05:36:04.964Z,2.00
2018-11-21T05:38:33.741Z,1.90
2018-11-21T05:41:02.493Z,2.00
2018-11-21T05:43:31.219Z,1.90
2018-11-21T05:46:00.069Z,1.90
2018-11-21T05:48:28.710Z,1.90
2018-11-21T05:50:57.457Z,1.90
2018-11-21T05:53:26.206Z,2.00
2018-11-21T05:55:54.910Z,1.90
2018-11-21T05:58:23.656Z,1.90
2018-11-21T06:00:52.423Z,2.00
2018-11-21T06:03:21.153Z,2.00
2018-11-21T06:05:49.860Z,1.90
2018-11-21T06:08:18.676Z,1.90
2018-11-21T06:10:47.408Z,1.90
2018-11-21T06:13:16.236Z,1.90
2018-11-21T06:15:45.029Z,2.00
2018-11-21T06:18:13.884Z,1.90
2018-11-21T06:20:42.664Z,1.90
2018-11-21T06:23:11.419Z,1.90
2018-11-21T06:25:40.131Z,1.90
2018-11-21T06:28:08.868Z,1.80
2018-11-21T06:30:37.580Z,1.80
2018-11-21T06:33:06.501Z,1.80
2018-11-21T06:35:35.232Z,1.80
2018-11-21T06:38:03.951Z,1.80
2018-11-21T06:40:32.766Z,1.80
2018-11-21T06:43:01.546Z,1.80
2018-11-21T06:45:30.258Z,1.80
2018-11-21T06:47:58.999Z,1.90
2018-11-21T06:50:27.771Z,1.90
2018-11-21T06:52:57.667Z,1.80
2018-11-21T06:55:26.460Z,1.80
2018-11-21T06:57:55.163Z,1.80
2018-11-21T07:00:23.903Z,1.90
2018-11-21T07:02:52.596Z,1.90
2018-11-21T07:05:21.362Z,1.90
2018-11-21T07:07:50.124Z,1.90
2018-11-21T07:10:18.885Z,1.90
2018-11-21T07:12:47.932Z,1.90
2018-11-21T07:15:16.885Z,1.90
2018-11-21T07:17:45.527Z,2.10
2018-11-21T07:20:14.377Z,2.00
2018-11-21T07:22:43.138Z,2.10
2018-11-21T07:25:15.948Z,2.30
2018-11-21T07:27:44.936Z,2.40
2018-11-21T07:30:14.989Z,2.40
2018-11-21T07:32:43.733Z,2.60
2018-11-21T07:35:17.767Z,2.90
2018-11-21T07:37:42.117Z,3.10
2018-11-21T07:40:14.752Z,3.10
2018-11-21T07:42:43.566Z,3.20
2018-11-21T07:45:13.717Z,3.40
2018-11-21T07:47:43.555Z,3.50
2018-11-21T07:50:15.077Z,3.30
2018-11-21T07:52:43.909Z,3.20
2018-11-21T07:55:13.264Z,3.10
2018-11-21T07:57:54.526Z,2.80
2018-11-21T08:01:04.299Z,2.70
2018-11-21T08:03:34.984Z,2.70
2018-11-21T08:06:06.766Z,2.70
2018-11-21T08:08:53.625Z,2.50
2018-11-21T08:11:47.394Z,2.50
2018-11-21T08:14:35.307Z,2.50
2018-11-21T08:17:26.619Z,2.60
2018-11-21T08:20:13.325Z,2.60
2018-11-21T08:22:57.244Z,2.50
2018-11-21T08:25:38.248Z,2.40
2018-11-21T08:28:20.021Z,2.40
2018-11-21T08:30:49.543Z,2.50
2018-11-21T08:33:18.365Z,2.60
2018-11-21T08:35:47.402Z,2.80
2018-11-21T08:38:16.678Z,3.10
2018-11-21T08:40:45.725Z,3.30
2018-11-21T08:43:14.455Z,3.30
2018-11-21T08:45:43.176Z,3.50
2018-11-21T08:48:12.436Z,3.60
2018-11-21T08:50:41.240Z,3.30
2018-11-21T08:53:09.933Z,3.30
2018-11-21T08:55:38.703Z,3.30
2018-11-21T08:58:08.109Z,3.50
2018-11-21T09:00:36.819Z,3.60
2018-11-21T09:03:06.209Z,3.50
2018-11-21T09:05:35.003Z,3.50
2018-11-21T09:08:04.240Z,3.70
2018-11-21T09:13:01.432Z,3.50
2018-11-21T09:15:30.176Z,3.40
2018-11-21T09:17:58.915Z,3.50
2018-11-21T09:20:27.730Z,3.50
2018-11-21T09:22:56.445Z,3.40
2018-11-21T09:25:25.137Z,3.50
2018-11-21T09:27:53.855Z,3.60
2018-11-21T09:30:23.557Z,3.70
2018-11-21T09:32:54.002Z,4.00
2018-11-21T09:35:22.690Z,4.10
2018-11-21T09:37:51.415Z,3.90
2018-11-21T09:40:21.478Z,3.80
2018-11-21T09:42:51.490Z,3.60
2018-11-21T09:45:22.630Z,3.60
2018-11-21T09:47:51.333Z,3.40
2018-11-21T09:50:27.600Z,3.30
2018-11-21T09:52:56.355Z,3.20
2018-11-21T09:55:25.124Z,3.10
2018-11-21T09:57:53.899Z,3.00
2018-11-21T10:00:59.501Z,2.90
2018-11-21T10:03:29.876Z,2.80
2018-11-21T10:06:31.477Z,2.80
2018-11-21T10:09:12.726Z,2.80
2018-11-21T10:11:41.471Z,2.80
2018-11-21T10:14:10.165Z,2.80
2018-11-21T10:16:38.944Z,2.80
2018-11-21T10:19:07.910Z,2.70
2018-11-21T10:21:37.035Z,2.80
2018-11-21T10:24:05.748Z,2.90
2018-11-21T10:26:34.451Z,3.00
2018-11-21T10:29:03.162Z,3.00
2018-11-21T10:31:31.888Z,3.10
2018-11-21T10:34:00.609Z,3.00
2018-11-21T10:36:29.320Z,3.00
2018-11-21T10:38:58.045Z,3.00
2018-11-21T10:41:26.792Z,2.90
2018-11-21T10:43:55.508Z,3.10
2018-11-21T10:46:24.305Z,3.30
2018-11-21T10:48:53.057Z,3.30
2018-11-21T10:51:21.843Z,3.10
2018-11-21T10:53:50.756Z,3.20
2018-11-21T10:56:19.530Z,3.20
2018-11-21T10:58:48.336Z,3.10
2018-11-21T11:01:35.112Z,3.00
2018-11-21T11:04:10.749Z,2.90
2018-11-21T11:06:51.885Z,2.90
2018-11-21T11:09:58.482Z,2.80
2018-11-21T11:12:58.436Z,2.80
2018-11-21T11:15:49.408Z,2.90
2018-11-21T11:18:34.884Z,2.90
2018-11-21T11:21:22.016Z,2.90
2018-11-21T11:24:11.444Z,2.90
2018-11-21T11:26:48.413Z,2.90
2018-11-21T11:29:39.213Z,3.00
2018-11-21T11:32:27.590Z,3.00
2018-11-21T11:35:07.977Z,3.00
2018-11-21T11:37:52.067Z,2.90
2018-11-21T11:40:52.758Z,2.90
2018-11-21T11:43:49.651Z,3.00
2018-11-21T11:46:31.378Z,3.10
2018-11-21T11:49:17.837Z,3.10
2018-11-21T11:52:08.419Z,3.10
2018-11-21T11:55:11.260Z,3.20
2018-11-21T11:57:56.570Z,3.20
2018-11-21T12:00:44.511Z,3.00
2018-11-21T12:03:31.331Z,3.10
2018-11-21T12:06:13.203Z,3.10
2018-11-21T12:09:00.769Z,3.10
2018-11-21T12:11:47.907Z,3.00
2018-11-21T12:14:50.952Z,3.10
2018-11-21T12:17:31.420Z,3.00
2018-11-21T12:20:27.832Z,2.90
2018-11-21T12:23:22.127Z,2.90
2018-11-21T12:26:10.577Z,3.00
2018-11-21T12:29:00.459Z,2.90
2018-11-21T12:32:03.855Z,2.90
2018-11-21T12:34:57.500Z,2.90
2018-11-21T12:37:38.081Z,2.90
2018-11-21T12:40:25.540Z,3.00
2018-11-21T12:43:13.472Z,3.10
2018-11-21T12:46:08.511Z,3.10
2018-11-21T12:48:52.464Z,3.00
2018-11-21T12:51:44.110Z,3.10
2018-11-21T12:54:32.649Z,3.10
2018-11-21T12:57:09.641Z,3.10
2018-11-21T12:59:56.335Z,3.10
2018-11-21T13:02:39.813Z,3.00
2018-11-21T13:05:28.032Z,3.00
2018-11-21T13:08:14.889Z,3.10
2018-11-21T13:11:01.887Z,3.10
2018-11-21T13:14:07.741Z,3.10
2018-11-21T13:16:54.546Z,3.10
2018-11-21T13:19:41.140Z,3.10
2018-11-21T13:22:36.583Z,3.10
2018-11-21T13:25:27.334Z,3.00
2018-11-21T13:28:30.435Z,3.10
2018-11-21T13:31:24.285Z,3.10
2018-11-21T13:34:30.892Z,3.10
2018-11-21T13:37:34.159Z,3.10
2018-11-21T13:40:31.206Z,3.00
2018-11-21T13:43:11.209Z,3.00
2018-11-21T13:46:17.511Z,3.00
2018-11-21T13:49:05.992Z,3.00
2018-11-21T13:52:08.639Z,3.00
2018-11-21T13:54:45.367Z,3.00
2018-11-21T13:57:14.263Z,3.00
2018-11-21T13:59:45.713Z,3.00
2018-11-21T14:02:14.541Z,3.10
2018-11-21T14:04:43.728Z,3.10
2018-11-21T14:07:15.522Z,3.10
2018-11-21T14:09:41.981Z,3.00
2018-11-21T14:12:10.874Z,3.10
2018-11-21T14:14:39.821Z,3.00
2018-11-21T14:17:08.984Z,3.00
2018-11-21T14:19:40.108Z,3.00
2018-11-21T14:22:09.064Z,3.00
2018-11-21T14:24:38.104Z,2.90
2018-11-21T14:27:07.067Z,2.90
2018-11-21T14:29:35.985Z,2.90
2018-11-21T14:32:05.595Z,3.00
2018-11-21T14:34:34.666Z,3.00
2018-11-21T14:37:03.372Z,3.00
2018-11-21T14:39:34.239Z,3.00
2018-11-21T14:42:08.335Z,3.00
2018-11-21T14:44:34.921Z,3.00
2018-11-21T14:47:05.172Z,3.10
2018-11-21T14:49:35.673Z,3.00
2018-11-21T14:52:03.699Z,2.90
2018-11-21T14:54:35.552Z,2.80
2018-11-21T14:57:04.363Z,2.90
2018-11-21T14:59:40.940Z,2.90
2018-11-21T15:02:10.111Z,2.80
2018-11-21T15:04:38.971Z,2.80
2018-11-21T15:07:14.328Z,2.90
2018-11-21T15:09:37.175Z,3.00
2018-11-21T15:12:08.278Z,3.10
2018-11-21T15:14:37.304Z,3.10
2018-11-21T15:17:06.342Z,3.20
2018-11-21T15:19:35.213Z,3.20
2018-11-21T15:22:04.461Z,3.20
2018-11-21T15:24:35.474Z,3.20
2018-11-21T15:27:05.578Z,3.20
2018-11-21T15:29:34.834Z,3.10
2018-11-21T15:32:06.365Z,3.10
2018-11-21T15:34:41.278Z,3.00
2018-11-21T15:37:12.257Z,3.10
2018-11-21T15:39:39.611Z,3.00
2018-11-21T15:42:14.041Z,3.00
2018-11-21T15:44:42.651Z,3.00
2018-11-21T15:47:13.235Z,2.90
2018-11-21T15:49:43.323Z,3.00
2018-11-21T15:52:19.850Z,3.00
2018-11-21T15:54:48.776Z,3.00
2018-11-21T15:57:17.704Z,3.10
2018-11-21T15:59:46.635Z,3.10
2018-11-21T16:02:15.460Z,3.10
2018-11-21T16:04:48.083Z,3.00
2018-11-21T16:07:13.611Z,3.10
2018-11-21T16:09:42.691Z,3.00
2018-11-21T16:12:11.594Z,3.00
2018-11-21T16:14:40.828Z,3.00
2018-11-21T16:17:10.259Z,3.10
2018-11-21T16:19:41.774Z,3.10
2018-11-21T16:22:16.251Z,3.00
2018-11-21T16:24:40.297Z,3.00
2018-11-21T16:27:09.172Z,3.10
2018-11-21T16:29:38.219Z,3.10
2018-11-21T16:32:07.011Z,3.10
2018-11-21T16:34:35.769Z,3.10
2018-11-21T16:37:04.678Z,3.00
2018-11-21T16:39:33.721Z,3.00
2018-11-21T16:42:02.521Z,2.90
2018-11-21T16:44:31.318Z,2.80
2018-11-21T16:47:02.774Z,2.80
2018-11-21T16:49:31.889Z,2.80
2018-11-21T16:52:00.713Z,2.70
2018-11-21T16:54:32.148Z,2.70
2018-11-21T16:56:58.283Z,2.60
2018-11-21T16:59:27.113Z,2.50
2018-11-21T17:01:56.035Z,2.40
2018-11-21T17:04:24.826Z,2.50
2018-11-21T17:06:53.707Z,2.40
2018-11-21T17:09:24.221Z,2.50
2018-11-21T17:11:51.752Z,2.50
2018-11-21T17:14:20.739Z,2.50
2018-11-21T17:16:49.944Z,2.50
2018-11-21T17:19:21.393Z,2.60
2018-11-21T17:21:47.959Z,2.60
2018-11-21T17:24:17.095Z,2.70
2018-11-21T17:26:45.935Z,2.70
2018-11-21T17:29:14.777Z,2.60
2018-11-21T17:31:46.279Z,2.60
2018-11-21T17:34:12.654Z,2.60
2018-11-21T17:36:41.598Z,2.70
2018-11-21T17:39:12.387Z,2.60
2018-11-21T17:41:41.462Z,2.60
2018-11-21T17:44:10.908Z,2.60
2018-11-21T17:46:39.848Z,2.50
2018-11-21T17:49:08.737Z,2.40
2018-11-21T17:51:37.804Z,2.40
2018-11-21T17:54:06.894Z,2.50
2018-11-21T17:56:36.014Z,2.40
2018-11-21T17:59:04.922Z,2.40
2018-11-21T18:01:34.130Z,2.40
2018-11-21T18:04:03.053Z,2.30
2018-11-21T18:06:31.869Z,2.20
2018-11-21T18:09:01.048Z,2.20
2018-11-21T18:11:30.215Z,2.20
2018-11-21T18:13:59.449Z,2.10
2018-11-21T18:16:28.901Z,2.10
2018-11-21T18:18:57.729Z,2.00
2018-11-21T18:21:29.745Z,2.00
2018-11-21T18:24:03.602Z,2.00
2018-11-21T18:26:32.815Z,2.00
2018-11-21T18:29:02.107Z,2.00
2018-11-21T18:31:35.702Z,2.10
2018-11-21T18:34:03.088Z,2.10
2018-11-21T18:36:32.377Z,2.20
2018-11-21T18:39:01.622Z,2.10
2018-11-21T18:41:30.651Z,2.10
2018-11-21T18:44:01.507Z,2.20
2018-11-21T18:46:28.627Z,2.30
2018-11-21T18:48:57.720Z,2.30
2018-11-21T18:51:27.238Z,2.40
2018-11-21T18:53:55.990Z,2.40
2018-11-21T18:56:28.968Z,2.40
2018-11-21T18:59:16.503Z,2.30
2018-11-21T19:01:46.823Z,2.30
2018-11-21T19:04:14.069Z,2.20
2018-11-21T19:06:43.023Z,2.20
2018-11-21T19:09:13.943Z,2.20
2018-11-21T19:11:42.796Z,2.20
2018-11-21T19:14:11.655Z,2.20
2018-11-21T19:16:40.422Z,2.20
2018-11-21T19:19:09.221Z,2.20
2018-11-21T19:21:38.075Z,2.20
2018-11-21T19:24:06.857Z,2.20
2018-11-21T19:26:35.654Z,2.10
2018-11-21T19:29:04.399Z,2.10
2018-11-21T19:31:33.150Z,2.10
2018-11-21T19:34:02.325Z,2.10
2018-11-21T19:36:31.081Z,2.00
2018-11-21T19:38:59.913Z,2.10
2018-11-21T19:41:28.778Z,2.20
2018-11-21T19:43:57.586Z,2.20
2018-11-21T19:46:26.403Z,2.20
2018-11-21T19:48:55.094Z,2.10
2018-11-21T19:51:23.851Z,2.00
2018-11-21T19:53:53.681Z,2.00
2018-11-21T19:56:22.565Z,2.00
2018-11-21T19:58:51.303Z,1.90
2018-11-21T20:01:20.337Z,3.90
2018-11-21T20:03:49.132Z,1.90
2018-11-21T20:06:18.041Z,2.00
2018-11-21T20:08:46.841Z,1.90
2018-11-21T20:11:16.497Z,2.00
2018-11-21T20:13:45.324Z,2.00
2018-11-21T20:16:14.012Z,1.90
2018-11-21T20:18:42.811Z,2.00
2018-11-21T20:21:11.584Z,1.90
2018-11-21T20:23:40.512Z,1.90
2018-11-21T20:26:09.333Z,2.00
2018-11-21T20:28:38.158Z,2.10
2018-11-21T20:31:06.975Z,2.00
2018-11-21T20:33:38.527Z,2.00
2018-11-21T20:36:07.378Z,2.00
2018-11-21T20:38:36.103Z,2.00
2018-11-21T20:41:05.022Z,2.00
2018-11-21T20:43:33.988Z,2.00
2018-11-21T20:46:02.744Z,2.00
2018-11-21T20:48:31.698Z,1.90
2018-11-21T20:51:00.539Z,1.90
2018-11-21T20:53:29.924Z,1.90
2018-11-21T20:55:59.093Z,2.00
2018-11-21T20:58:28.034Z,2.10
2018-11-21T21:00:57.431Z,2.20
2018-11-21T21:03:33.726Z,2.10
2018-11-21T21:06:02.751Z,2.20
2018-11-21T21:08:31.460Z,2.20
2018-11-21T21:11:00.441Z,2.30
2018-11-21T21:13:29.426Z,2.40
2018-11-21T21:16:01.071Z,2.30
2018-11-21T21:18:29.996Z,2.20
2018-11-21T21:20:58.912Z,2.10
2018-11-21T21:23:27.880Z,2.00
2018-11-21T21:25:57.008Z,1.90
2018-11-21T21:28:25.752Z,1.80
2018-11-21T21:30:54.488Z,1.80
2018-11-21T21:33:24.334Z,1.80
2018-11-21T21:35:53.112Z,1.90
2018-11-21T21:38:22.113Z,1.90
2018-11-21T21:40:50.849Z,2.00
